Time;durP1;ratioP1;P1;durP2;ratioP2;P2;SDS_P1;SDS_P2;PMS_P1;PMS_P2;Temp;Humidity;BMP_temperature;BMP_pressure;BME280_temperature;BME280_humidity;BME280_pressure;Samples;Min_cycle;Max_cycle;Signal;HPM_P1;HPM_P2
2022/12/06 00:01:44;;;;;;;29.92;18.00;;;;;;;;;;5114338;28;20032;-72
2022/12/06 00:04:29;;;;;;;31.15;19.00;;;;;;;;;;5114724;28;20432;-73
2022/12/06 00:07:15;;;;;;;31.33;18.65;;;;;;;;;;5114008;28;20055;-73
2022/12/06 00:10:00;;;;;;;32.33;19.30;;;;;;;;;;5099843;28;20024;-73
2022/12/06 00:12:46;;;;;;;32.08;19.40;;;;;;;;;;5113867;28;20020;-73
2022/12/06 00:15:34;;;;;;;35.00;20.73;;;;;;;;;;5100429;28;20432;-73
2022/12/06 00:18:20;;;;;;;30.98;19.27;;;;;;;;;;5114368;28;20027;-74
2022/12/06 00:21:05;;;;;;;33.60;19.92;;;;;;;;;;5113780;28;20440;-73
2022/12/06 00:23:52;;;;;;;32.97;20.95;;;;;;;;;;5099754;28;20038;-74
2022/12/06 00:26:39;;;;;;;39.33;21.67;;;;;;;;;;5115623;28;20023;-73
2022/12/06 00:29:24;;;;;;;34.58;21.00;;;;;;;;;;5113957;28;20016;-73
2022/12/06 00:32:10;;;;;;;38.47;21.15;;;;;;;;;;5113737;28;20394;-73
2022/12/06 00:34:56;;;;;;;32.70;20.48;;;;;;;;;;5114420;28;20383;-73
2022/12/06 00:37:41;;;;;;;32.17;19.45;;;;;;;;;;5113942;28;20047;-74
2022/12/06 00:40:27;;;;;;;33.67;20.67;;;;;;;;;;5099450;28;20336;-73
2022/12/06 00:43:12;;;;;;;33.00;19.70;;;;;;;;;;5114022;28;20030;-74
2022/12/06 00:45:58;;;;;;;33.42;20.75;;;;;;;;;;5113292;28;20016;-73
2022/12/06 00:48:44;;;;;;;34.15;21.15;;;;;;;;;;5113654;28;20459;-73
2022/12/06 00:51:31;;;;;;;35.05;20.25;;;;;;;;;;5114130;28;20054;-73
2022/12/06 00:54:17;;;;;;;33.08;20.15;;;;;;;;;;5113644;28;20028;-72
2022/12/06 00:57:02;;;;;;;34.20;19.98;;;;;;;;;;5100318;28;20501;-73
2022/12/06 00:59:48;;;;;;;32.25;18.92;;;;;;;;;;5102679;28;20031;-73
2022/12/06 01:02:33;;;;;;;35.38;19.85;;;;;;;;;;5118015;28;20023;-71
2022/12/06 01:05:19;;;;;;;32.42;19.20;;;;;;;;;;5117281;28;20056;-72
2022/12/06 01:08:04;;;;;;;31.52;18.95;;;;;;;;;;5117381;28;20359;-72
2022/12/06 01:10:51;;;;;;;36.35;21.10;;;;;;;;;;5117503;28;20034;-72
2022/12/06 01:13:37;;;;;;;32.75;19.42;;;;;;;;;;5117617;28;20028;-72
2022/12/06 01:16:24;;;;;;;33.67;20.45;;;;;;;;;;5116706;28;20043;-72
2022/12/06 01:19:10;;;;;;;35.42;19.25;;;;;;;;;;5116941;28;20023;-72
2022/12/06 01:21:56;;;;;;;34.72;19.98;;;;;;;;;;5116784;28;20016;-72
2022/12/06 01:24:41;;;;;;;32.25;19.98;;;;;;;;;;5102302;28;20020;-72
2022/12/06 01:27:27;;;;;;;34.05;20.70;;;;;;;;;;5116989;28;20020;-71
2022/12/06 01:30:13;;;;;;;34.85;20.85;;;;;;;;;;5103620;28;20028;-72
2022/12/06 01:32:58;;;;;;;35.35;20.05;;;;;;;;;;5116965;28;20482;-72
2022/12/06 01:35:44;;;;;;;34.05;19.58;;;;;;;;;;5116615;28;20077;-72
2022/12/06 01:38:30;;;;;;;35.92;21.33;;;;;;;;;;5116667;28;20048;-72
2022/12/06 01:41:16;;;;;;;33.13;20.58;;;;;;;;;;5116998;28;20049;-73
2022/12/06 01:44:02;;;;;;;33.70;20.85;;;;;;;;;;5103041;28;20053;-72
2022/12/06 01:46:47;;;;;;;34.90;20.67;;;;;;;;;;5116246;28;20019;-73
2022/12/06 01:49:33;;;;;;;36.88;21.02;;;;;;;;;;5116170;28;20394;-71
2022/12/06 01:52:21;;;;;;;39.58;21.13;;;;;;;;;;5115967;28;20030;-72
2022/12/06 01:55:08;;;;;;;37.22;20.55;;;;;;;;;;5116354;28;20058;-72
2022/12/06 01:57:56;;;;;;;33.53;19.80;;;;;;;;;;5117066;28;20020;-72
2022/12/06 02:00:41;;;;;;;44.15;22.67;;;;;;;;;;5117102;28;20024;-72
2022/12/06 02:03:28;;;;;;;35.50;21.13;;;;;;;;;;5116132;28;20026;-72
2022/12/06 02:06:14;;;;;;;36.85;20.60;;;;;;;;;;5115873;28;20024;-72
2022/12/06 02:09:01;;;;;;;40.22;21.05;;;;;;;;;;5114880;28;20023;-72
2022/12/06 02:11:46;;;;;;;34.17;19.98;;;;;;;;;;5116267;28;20024;-72
2022/12/06 02:14:33;;;;;;;37.67;21.00;;;;;;;;;;5101296;28;20066;-72
2022/12/06 02:17:28;;;;;;;36.83;21.60;;;;;;;;;;5115803;28;20110;-73
2022/12/06 02:20:33;;;;;;;38.05;21.63;;;;;;;;;;5116387;28;20019;-72
2022/12/06 02:23:35;;;;;;;39.95;22.20;;;;;;;;;;5116319;28;20122;-73
2022/12/06 02:26:41;;;;;;;39.33;21.55;;;;;;;;;;5115723;28;20047;-71
2022/12/06 02:29:44;;;;;;;38.47;22.63;;;;;;;;;;5115631;28;20019;-72
2022/12/06 02:32:50;;;;;;;43.63;22.98;;;;;;;;;;5115992;28;20020;-73
2022/12/06 02:35:41;;;;;;;44.42;23.85;;;;;;;;;;5116720;28;20026;-72
2022/12/06 02:38:31;;;;;;;47.65;25.00;;;;;;;;;;5114763;28;20528;-72
2022/12/06 02:41:37;;;;;;;50.22;25.38;;;;;;;;;;5115460;28;20440;-72
2022/12/06 02:44:25;;;;;;;51.72;27.52;;;;;;;;;;5116755;28;20153;-73
2022/12/06 02:47:12;;;;;;;52.30;26.60;;;;;;;;;;5115351;28;20024;-72
2022/12/06 02:49:58;;;;;;;54.17;26.42;;;;;;;;;;5100789;28;20080;-72
2022/12/06 02:52:47;;;;;;;49.67;25.55;;;;;;;;;;5114797;28;20122;-72
2022/12/06 02:55:33;;;;;;;47.92;26.42;;;;;;;;;;5115227;28;20030;-72
2022/12/06 02:58:18;;;;;;;51.28;26.58;;;;;;;;;;5101512;28;20019;-72
2022/12/06 03:01:09;;;;;;;55.97;27.52;;;;;;;;;;5114682;28;20088;-73
2022/12/06 03:04:03;;;;;;;54.30;26.98;;;;;;;;;;5114991;28;20103;-72
2022/12/06 03:06:52;;;;;;;56.58;27.60;;;;;;;;;;5114927;28;20012;-72
2022/12/06 03:09:37;;;;;;;54.72;27.90;;;;;;;;;;5115104;28;20028;-72
2022/12/06 03:12:32;;;;;;;52.15;27.92;;;;;;;;;;5114686;28;20027;-72
2022/12/06 03:15:20;;;;;;;56.20;27.05;;;;;;;;;;5114879;28;20360;-72
2022/12/06 03:18:06;;;;;;;59.95;27.45;;;;;;;;;;5115095;28;20375;-73
2022/12/06 03:20:51;;;;;;;50.00;25.77;;;;;;;;;;5099346;28;20020;-72
2022/12/06 03:23:42;;;;;;;53.30;26.95;;;;;;;;;;5114468;28;20356;-72
2022/12/06 03:26:30;;;;;;;51.97;26.13;;;;;;;;;;5114273;28;20024;-72
2022/12/06 03:29:17;;;;;;;56.58;27.30;;;;;;;;;;5100359;28;20016;-72
2022/12/06 03:32:04;;;;;;;53.63;26.45;;;;;;;;;;5114435;28;20034;-72
2022/12/06 03:34:51;;;;;;;57.75;27.70;;;;;;;;;;5099935;28;20102;-72
2022/12/06 03:37:38;;;;;;;59.92;29.13;;;;;;;;;;5100203;28;20097;-72
2022/12/06 03:40:28;;;;;;;58.13;28.35;;;;;;;;;;5100858;28;20015;-73
2022/12/06 03:43:14;;;;;;;53.80;26.60;;;;;;;;;;5099498;28;20015;-72
2022/12/06 03:46:03;;;;;;;56.78;26.92;;;;;;;;;;5100072;28;20012;-72
2022/12/06 03:48:52;;;;;;;50.72;25.55;;;;;;;;;;5114318;28;20104;-72
2022/12/06 03:51:39;;;;;;;55.83;25.83;;;;;;;;;;5114813;28;20031;-72
2022/12/06 03:54:25;;;;;;;49.80;24.48;;;;;;;;;;5113662;28;20095;-73
2022/12/06 03:57:10;;;;;;;50.58;25.48;;;;;;;;;;5114222;28;20062;-72
2022/12/06 03:59:56;;;;;;;51.35;24.10;;;;;;;;;;5113609;28;20401;-72
2022/12/06 04:02:41;;;;;;;52.03;25.65;;;;;;;;;;5114009;28;20039;-73
2022/12/06 04:05:27;;;;;;;59.17;24.90;;;;;;;;;;5114353;28;20021;-73
2022/12/06 04:08:12;;;;;;;52.55;24.67;;;;;;;;;;5100004;28;20403;-74
2022/12/06 04:10:58;;;;;;;46.88;21.98;;;;;;;;;;5114388;28;20028;-73
2022/12/06 04:13:44;;;;;;;54.30;23.67;;;;;;;;;;5113952;28;20023;-74
2022/12/06 04:19:33;;;;;;;53.05;24.17;;;;;;;;;;5114259;28;20023;-73
2022/12/06 04:25:23;;;;;;;49.25;23.08;;;;;;;;;;5114573;28;20054;-73
2022/12/06 04:40:25;;;;;;;47.10;20.77;;;;;;;;;;5118366;28;20015;-73
2022/12/06 04:46:15;;;;;;;44.58;18.60;;;;;;;;;;5117983;28;20023;-73
2022/12/06 04:49:00;;;;;;;36.80;17.65;;;;;;;;;;5103346;28;20016;-73
2022/12/06 04:51:46;;;;;;;41.83;20.23;;;;;;;;;;5117920;28;20042;-75
2022/12/06 04:54:32;;;;;;;47.00;20.63;;;;;;;;;;5116941;28;20024;-74
2022/12/06 04:57:17;;;;;;;40.53;18.95;;;;;;;;;;5117309;28;20026;-73
2022/12/06 05:00:03;;;;;;;39.53;18.23;;;;;;;;;;5117418;28;20035;-73
2022/12/06 05:02:49;;;;;;;35.05;16.95;;;;;;;;;;5118262;28;20016;-74
2022/12/06 05:05:34;;;;;;;36.75;17.23;;;;;;;;;;5116922;28;20012;-74
2022/12/06 05:08:20;;;;;;;40.40;17.98;;;;;;;;;;5102679;28;20157;-73
2022/12/06 05:11:06;;;;;;;32.83;16.90;;;;;;;;;;5117549;28;20340;-74
2022/12/06 05:13:51;;;;;;;34.45;15.63;;;;;;;;;;5117079;28;20119;-76
2022/12/06 05:16:37;;;;;;;34.72;16.20;;;;;;;;;;5117254;28;20027;-73
2022/12/06 05:19:22;;;;;;;34.08;14.82;;;;;;;;;;5116839;28;20033;-72
2022/12/06 05:22:08;;;;;;;32.13;14.88;;;;;;;;;;5116910;28;20026;-75
2022/12/06 05:24:53;;;;;;;34.90;14.68;;;;;;;;;;5116788;28;20019;-73
2022/12/06 05:27:39;;;;;;;40.33;15.60;;;;;;;;;;5116951;28;20368;-72
2022/12/06 05:30:25;;;;;;;38.92;16.85;;;;;;;;;;5116892;28;20451;-72
2022/12/06 05:33:10;;;;;;;39.88;15.57;;;;;;;;;;5116877;28;20087;-73
2022/12/06 05:35:56;;;;;;;46.78;17.42;;;;;;;;;;5116892;28;20026;-73
2022/12/06 05:38:41;;;;;;;43.58;16.95;;;;;;;;;;5116852;28;20060;-73
2022/12/06 05:41:27;;;;;;;42.33;17.00;;;;;;;;;;5115957;28;20341;-74
2022/12/06 05:44:12;;;;;;;43.75;17.13;;;;;;;;;;5115651;28;20122;-75
2022/12/06 05:46:58;;;;;;;47.78;18.08;;;;;;;;;;5115741;28;20397;-74
2022/12/06 05:49:44;;;;;;;43.92;16.85;;;;;;;;;;5116145;28;20039;-72
2022/12/06 05:52:29;;;;;;;44.80;17.02;;;;;;;;;;5116739;28;20435;-74
2022/12/06 05:55:15;;;;;;;40.08;16.90;;;;;;;;;;5116914;28;20034;-76
2022/12/06 05:58:01;;;;;;;41.10;15.85;;;;;;;;;;5101919;28;20084;-76
2022/12/06 06:00:47;;;;;;;39.35;16.27;;;;;;;;;;5116447;28;20042;-76
2022/12/06 06:03:33;;;;;;;52.95;18.63;;;;;;;;;;5116441;28;20463;-75
2022/12/06 06:06:18;;;;;;;43.83;17.67;;;;;;;;;;5116742;28;20032;-75
2022/12/06 06:09:04;;;;;;;53.83;18.85;;;;;;;;;;5116729;28;20016;-75
2022/12/06 06:11:50;;;;;;;51.40;20.85;;;;;;;;;;5116164;28;20011;-75
2022/12/06 06:14:35;;;;;;;55.13;22.48;;;;;;;;;;5115605;28;20035;-75
2022/12/06 06:17:22;;;;;;;57.97;24.25;;;;;;;;;;5117208;28;20032;-76
2022/12/06 06:20:08;;;;;;;56.35;23.75;;;;;;;;;;5115394;28;20061;-75
2022/12/06 06:22:54;;;;;;;50.78;22.40;;;;;;;;;;5116345;28;20020;-76
2022/12/06 06:25:40;;;;;;;50.17;23.92;;;;;;;;;;5102558;28;20043;-75
2022/12/06 06:28:25;;;;;;;50.92;23.88;;;;;;;;;;5101602;28;20054;-75
2022/12/06 06:31:11;;;;;;;47.67;24.65;;;;;;;;;;5101506;28;20032;-75
2022/12/06 06:33:56;;;;;;;51.65;23.98;;;;;;;;;;5115684;28;20024;-76
2022/12/06 06:36:42;;;;;;;56.15;25.73;;;;;;;;;;5101332;28;20070;-75
2022/12/06 06:39:28;;;;;;;59.47;29.45;;;;;;;;;;5100987;28;20363;-76
2022/12/06 06:42:13;;;;;;;77.15;35.42;;;;;;;;;;5115470;28;20019;-72
2022/12/06 06:44:59;;;;;;;69.47;31.10;;;;;;;;;;5115409;28;20020;-75
2022/12/06 06:47:44;;;;;;;80.93;40.55;;;;;;;;;;5115236;28;20077;-77
2022/12/06 06:50:30;;;;;;;111.72;57.28;;;;;;;;;;5115728;28;20046;-75
2022/12/06 06:53:15;;;;;;;74.47;40.17;;;;;;;;;;5101535;28;20024;-75
2022/12/06 06:56:01;;;;;;;67.13;35.13;;;;;;;;;;5115030;28;20039;-75
2022/12/06 06:58:47;;;;;;;67.78;36.40;;;;;;;;;;5115191;28;20034;-75
2022/12/06 07:01:32;;;;;;;66.95;32.13;;;;;;;;;;5115302;28;20027;-76
2022/12/06 07:04:18;;;;;;;54.65;30.02;;;;;;;;;;5114868;28;20316;-75
2022/12/06 07:07:03;;;;;;;57.45;28.67;;;;;;;;;;5100450;28;20320;-75
2022/12/06 07:09:49;;;;;;;66.47;32.40;;;;;;;;;;5115215;28;20031;-75
2022/12/06 07:12:35;;;;;;;59.75;31.98;;;;;;;;;;5100613;28;20496;-75
2022/12/06 07:15:20;;;;;;;71.03;35.78;;;;;;;;;;5115702;28;20023;-74
2022/12/06 07:18:06;;;;;;;65.10;33.25;;;;;;;;;;5115039;28;20027;-75
2022/12/06 07:21:02;;;;;;;65.10;31.88;;;;;;;;;;5114970;28;20043;-75
2022/12/06 07:23:48;;;;;;;64.72;32.40;;;;;;;;;;5114930;28;20020;-74
2022/12/06 07:26:34;;;;;;;66.18;33.30;;;;;;;;;;5115061;28;20110;-75
2022/12/06 07:29:19;;;;;;;63.63;31.80;;;;;;;;;;5114946;28;20023;-75
2022/12/06 07:32:05;;;;;;;51.45;25.65;;;;;;;;;;5100028;28;20019;-75
2022/12/06 07:34:51;;;;;;;43.47;22.25;;;;;;;;;;5115425;28;20012;-76
2022/12/06 07:37:36;;;;;;;42.15;20.80;;;;;;;;;;5115254;28;20077;-75
2022/12/06 07:40:22;;;;;;;41.67;20.40;;;;;;;;;;5114270;28;20027;-75
2022/12/06 07:46:12;;;;;;;39.90;19.00;;;;;;;;;;5115013;28;20378;-75
2022/12/06 07:48:58;;;;;;;42.88;19.80;;;;;;;;;;5114612;28;20016;-75
2022/12/06 07:51:44;;;;;;;38.03;18.92;;;;;;;;;;5114419;28;20034;-76
2022/12/06 07:54:30;;;;;;;37.78;19.20;;;;;;;;;;5114273;28;20439;-75
2022/12/06 07:57:15;;;;;;;41.75;19.92;;;;;;;;;;5114513;28;20046;-75
2022/12/06 08:00:03;;;;;;;42.13;20.23;;;;;;;;;;5114137;28;20027;-74
2022/12/06 08:02:48;;;;;;;41.65;18.92;;;;;;;;;;5114932;28;20043;-74
2022/12/06 08:05:34;;;;;;;43.85;22.45;;;;;;;;;;5100028;28;20012;-76
2022/12/06 08:08:20;;;;;;;41.03;19.40;;;;;;;;;;5106850;28;20024;-74
2022/12/06 08:11:06;;;;;;;44.90;20.83;;;;;;;;;;5121229;28;20031;-74
2022/12/06 08:13:52;;;;;;;38.47;18.90;;;;;;;;;;5121569;28;20053;-74
2022/12/06 08:16:38;;;;;;;37.67;17.98;;;;;;;;;;5120994;28;20333;-74
2022/12/06 08:19:24;;;;;;;34.92;18.52;;;;;;;;;;5106841;28;20073;-75
2022/12/06 08:22:10;;;;;;;35.15;18.08;;;;;;;;;;5121118;28;20083;-75
2022/12/06 08:24:56;;;;;;;37.10;19.55;;;;;;;;;;5120875;28;20047;-76
2022/12/06 08:27:41;;;;;;;32.15;17.35;;;;;;;;;;5121714;28;20024;-75
2022/12/06 08:30:27;;;;;;;34.55;17.30;;;;;;;;;;5107759;28;20460;-75
2022/12/06 08:33:13;;;;;;;28.95;15.90;;;;;;;;;;5107429;28;20111;-75
2022/12/06 08:35:59;;;;;;;28.35;14.63;;;;;;;;;;5120767;28;20104;-75
2022/12/06 08:38:48;;;;;;;33.38;17.35;;;;;;;;;;5120988;28;20120;-74
2022/12/06 08:44:37;;;;;;;32.47;17.48;;;;;;;;;;5121617;28;20372;-76
2022/12/06 08:47:23;;;;;;;26.27;14.57;;;;;;;;;;5120924;28;20053;-75
2022/12/06 08:50:08;;;;;;;26.17;14.65;;;;;;;;;;5120651;28;20027;-75
2022/12/06 08:52:54;;;;;;;28.55;15.40;;;;;;;;;;5121474;28;20050;-76
2022/12/06 08:55:40;;;;;;;29.13;14.63;;;;;;;;;;5120679;28;20019;-76
2022/12/06 08:58:26;;;;;;;31.90;15.52;;;;;;;;;;5120162;28;20035;-75
2022/12/06 09:01:12;;;;;;;32.25;17.10;;;;;;;;;;5105870;28;20020;-74
2022/12/06 09:03:58;;;;;;;27.50;15.13;;;;;;;;;;5120767;28;20477;-75
2022/12/06 09:06:44;;;;;;;29.00;15.52;;;;;;;;;;5120659;28;20027;-75
2022/12/06 09:09:30;;;;;;;26.45;14.02;;;;;;;;;;5121145;28;20016;-75
2022/12/06 09:12:15;;;;;;;31.48;16.95;;;;;;;;;;5106241;28;20365;-76
2022/12/06 09:15:01;;;;;;;31.60;15.60;;;;;;;;;;5120823;28;20521;-76
2022/12/06 09:17:47;;;;;;;34.00;17.52;;;;;;;;;;5120079;28;20016;-75
2022/12/06 09:20:32;;;;;;;35.63;18.17;;;;;;;;;;5117019;28;20035;-75
2022/12/06 09:23:18;;;;;;;29.45;15.75;;;;;;;;;;5102881;28;20086;-75
2022/12/06 09:26:04;;;;;;;30.13;16.58;;;;;;;;;;5117486;28;20020;-76
2022/12/06 09:28:50;;;;;;;32.92;16.58;;;;;;;;;;5103112;28;20387;-76
2022/12/06 09:31:38;;;;;;;31.35;17.17;;;;;;;;;;5103400;28;20035;-75
2022/12/06 09:34:24;;;;;;;42.20;23.60;;;;;;;;;;5117615;28;20027;-75
2022/12/06 09:37:11;;;;;;;39.95;20.67;;;;;;;;;;5116881;28;20090;-75
2022/12/06 09:40:00;;;;;;;34.15;18.05;;;;;;;;;;5102490;28;20070;-76
2022/12/06 09:42:46;;;;;;;35.30;17.17;;;;;;;;;;5117140;28;20023;-75
2022/12/06 09:45:50;;;;;;;30.35;17.63;;;;;;;;;;5102512;28;20019;-76
2022/12/06 09:48:56;;;;;;;32.70;17.98;;;;;;;;;;5116932;28;20050;-76
2022/12/06 09:51:42;;;;;;;33.72;17.65;;;;;;;;;;5114593;28;20065;-76
2022/12/06 09:54:32;;;;;;;35.65;18.70;;;;;;;;;;5116650;28;20020;-75
2022/12/06 09:57:24;;;;;;;32.15;17.35;;;;;;;;;;5115650;28;20015;-75
2022/12/06 10:00:14;;;;;;;34.22;17.75;;;;;;;;;;5101756;28;20024;-75
2022/12/06 10:03:19;;;;;;;32.80;17.27;;;;;;;;;;5116765;28;20038;-76
2022/12/06 10:06:11;;;;;;;29.42;16.98;;;;;;;;;;5116022;28;20340;-76
2022/12/06 10:09:06;;;;;;;37.70;18.65;;;;;;;;;;5117691;28;20020;-75
2022/12/06 10:11:55;;;;;;;35.15;18.55;;;;;;;;;;5115883;28;20540;-75
2022/12/06 10:14:49;;;;;;;37.47;18.55;;;;;;;;;;5116642;28;20084;-75
2022/12/06 10:17:40;;;;;;;29.42;17.40;;;;;;;;;;5115949;28;20062;-75
2022/12/06 10:20:25;;;;;;;35.47;19.58;;;;;;;;;;5114868;28;20031;-75
2022/12/06 10:23:30;;;;;;;32.75;18.27;;;;;;;;;;5103215;28;20132;-75
2022/12/06 10:26:18;;;;;;;34.90;19.55;;;;;;;;;;5116046;28;20036;-75
2022/12/06 10:29:06;;;;;;;33.40;18.20;;;;;;;;;;5116107;28;20016;-75
2022/12/06 10:31:56;;;;;;;31.35;17.95;;;;;;;;;;5115814;28;20106;-76
2022/12/06 10:35:08;;;;;;;30.42;17.33;;;;;;;;;;5115846;28;20057;-75
2022/12/06 10:37:57;;;;;;;34.60;19.63;;;;;;;;;;5102079;28;20044;-75
2022/12/06 10:40:45;;;;;;;33.35;18.13;;;;;;;;;;5115558;28;20031;-76
2022/12/06 10:44:03;;;;;;;29.58;17.48;;;;;;;;;;5116087;28;20024;-75
2022/12/06 10:47:03;;;;;;;31.77;18.50;;;;;;;;;;5075563;28;20025;-75
2022/12/06 10:49:52;;;;;;;33.38;18.15;;;;;;;;;;5116389;28;20024;-75
2022/12/06 10:52:40;;;;;;;32.88;18.58;;;;;;;;;;5115487;28;20024;-75
2022/12/06 10:55:25;;;;;;;30.48;17.45;;;;;;;;;;5115548;28;20020;-75
2022/12/06 10:58:26;;;;;;;29.98;16.42;;;;;;;;;;5115191;28;20035;-75
2022/12/06 11:01:17;;;;;;;27.23;16.00;;;;;;;;;;5117316;28;20026;-75
2022/12/06 11:04:08;;;;;;;28.60;17.23;;;;;;;;;;5117455;28;20077;-77
2022/12/06 11:07:23;;;;;;;31.25;17.05;;;;;;;;;;5116017;28;20019;-76
2022/12/06 11:10:18;;;;;;;30.38;17.30;;;;;;;;;;5108819;28;20048;-75
2022/12/06 11:13:15;;;;;;;41.67;19.02;;;;;;;;;;5117094;28;20103;-74
2022/12/06 11:16:08;;;;;;;33.67;17.77;;;;;;;;;;5115129;28;20021;-76
2022/12/06 11:19:20;;;;;;;36.28;20.67;;;;;;;;;;5101012;28;20042;-75
2022/12/06 11:22:10;;;;;;;31.38;18.05;;;;;;;;;;5092278;28;20123;-75
2022/12/06 11:25:01;;;;;;;30.88;17.98;;;;;;;;;;5115190;28;20527;-75
2022/12/06 11:27:57;;;;;;;37.35;22.38;;;;;;;;;;5115343;28;20085;-77
2022/12/06 11:30:43;;;;;;;30.50;17.83;;;;;;;;;;5115669;28;20019;-75
2022/12/06 11:33:30;;;;;;;27.27;16.02;;;;;;;;;;5114857;28;20008;-76
2022/12/06 11:36:16;;;;;;;31.67;16.98;;;;;;;;;;5115399;28;20027;-75
2022/12/06 11:39:02;;;;;;;31.20;18.15;;;;;;;;;;5115806;28;20139;-75
2022/12/06 11:41:50;;;;;;;31.20;16.17;;;;;;;;;;5114419;28;20030;-76
2022/12/06 11:44:42;;;;;;;26.20;14.75;;;;;;;;;;5114918;28;20411;-76
2022/12/06 11:47:28;;;;;;;25.98;14.98;;;;;;;;;;5114532;28;20028;-75
2022/12/06 11:50:16;;;;;;;28.70;16.73;;;;;;;;;;5114156;28;20024;-76
2022/12/06 11:53:10;;;;;;;25.40;14.70;;;;;;;;;;5115663;28;20034;-74
2022/12/06 11:55:57;;;;;;;27.35;15.73;;;;;;;;;;5114248;28;20019;-76
2022/12/06 11:58:56;;;;;;;28.90;16.20;;;;;;;;;;5114271;28;20042;-74
2022/12/06 12:01:44;;;;;;;23.77;14.52;;;;;;;;;;5100666;28;20070;-74
2022/12/06 12:04:39;;;;;;;21.27;13.52;;;;;;;;;;5114664;28;20072;-76
2022/12/06 12:07:25;;;;;;;23.40;14.63;;;;;;;;;;5114752;28;20031;-75
2022/12/06 12:10:20;;;;;;;27.88;16.25;;;;;;;;;;5115562;28;20348;-75
2022/12/06 12:16:22;;;;;;;24.80;15.45;;;;;;;;;;5115115;28;20024;-75
2022/12/06 12:19:22;;;;;;;27.60;15.57;;;;;;;;;;5114053;28;20106;-75
2022/12/06 12:22:41;;;;;;;33.58;20.73;;;;;;;;;;5115750;28;20436;-74
2022/12/06 12:25:35;;;;;;;40.42;21.48;;;;;;;;;;5080897;28;20425;-75
2022/12/06 12:28:25;;;;;;;31.88;17.58;;;;;;;;;;5100053;28;20099;-75
2022/12/06 12:31:18;;;;;;;28.60;16.60;;;;;;;;;;5114059;28;20081;-74
2022/12/06 12:34:11;;;;;;;29.50;15.60;;;;;;;;;;5114299;28;20030;-74
2022/12/06 12:36:59;;;;;;;26.42;16.15;;;;;;;;;;5113813;28;20126;-75
2022/12/06 12:39:49;;;;;;;27.70;15.15;;;;;;;;;;5113982;28;20027;-75
2022/12/06 12:42:38;;;;;;;23.58;14.27;;;;;;;;;;5115196;28;20094;-75
2022/12/06 12:45:26;;;;;;;23.65;14.40;;;;;;;;;;5114670;28;20080;-75
2022/12/06 12:48:22;;;;;;;22.15;13.52;;;;;;;;;;5115342;28;20390;-75
2022/12/06 12:51:22;;;;;;;24.50;14.48;;;;;;;;;;5113468;28;20153;-75
2022/12/06 12:54:28;;;;;;;24.42;14.20;;;;;;;;;;5116645;28;20057;-75
2022/12/06 12:57:13;;;;;;;22.13;14.32;;;;;;;;;;5117106;28;20485;-75
2022/12/06 12:59:59;;;;;;;23.05;13.88;;;;;;;;;;5118096;28;20118;-75
2022/12/06 13:02:48;;;;;;;24.67;15.38;;;;;;;;;;5103466;28;20016;-75
2022/12/06 13:05:35;;;;;;;20.98;14.05;;;;;;;;;;5104296;28;20050;-75
2022/12/06 13:08:25;;;;;;;25.60;15.70;;;;;;;;;;5116786;28;20019;-74
2022/12/06 13:11:11;;;;;;;30.63;15.23;;;;;;;;;;5117933;28;20051;-75
2022/12/06 13:13:57;;;;;;;22.42;14.75;;;;;;;;;;5117833;28;20504;-73
2022/12/06 13:16:43;;;;;;;23.52;14.05;;;;;;;;;;5117171;28;20055;-75
2022/12/06 13:19:47;;;;;;;23.63;14.15;;;;;;;;;;5117955;28;20027;-73
2022/12/06 13:22:37;;;;;;;26.08;13.82;;;;;;;;;;5116810;28;20027;-74
2022/12/06 13:25:23;;;;;;;25.25;14.48;;;;;;;;;;5103832;28;20020;-76
2022/12/06 13:28:14;;;;;;;24.50;15.02;;;;;;;;;;5118823;27;20043;-73
2022/12/06 13:31:06;;;;;;;24.17;15.07;;;;;;;;;;5103855;28;20447;-75
2022/12/06 13:33:57;;;;;;;20.67;13.30;;;;;;;;;;5103685;28;20156;-75
2022/12/06 13:36:42;;;;;;;25.10;13.75;;;;;;;;;;5116628;28;20044;-76
2022/12/06 13:39:31;;;;;;;24.67;14.88;;;;;;;;;;5117477;28;20368;-75
2022/12/06 13:42:22;;;;;;;26.52;15.00;;;;;;;;;;5117647;28;20081;-73
2022/12/06 13:45:28;;;;;;;27.00;16.58;;;;;;;;;;5102425;28;20020;-73
2022/12/06 13:48:23;;;;;;;27.05;15.55;;;;;;;;;;5114089;28;20032;-74
2022/12/06 13:51:10;;;;;;;26.65;15.63;;;;;;;;;;5116427;28;20060;-74
2022/12/06 13:54:02;;;;;;;27.83;14.70;;;;;;;;;;5117561;28;20050;-77
2022/12/06 13:56:48;;;;;;;25.40;15.10;;;;;;;;;;5102254;28;20439;-75
2022/12/06 13:59:37;;;;;;;27.95;15.85;;;;;;;;;;5116374;28;20102;-74
2022/12/06 14:02:49;;;;;;;28.30;15.88;;;;;;;;;;5117596;28;20020;-75
2022/12/06 14:05:56;;;;;;;27.25;15.23;;;;;;;;;;5115445;28;20356;-74
2022/12/06 14:08:45;;;;;;;28.98;15.70;;;;;;;;;;5116686;28;20341;-74
2022/12/06 14:11:31;;;;;;;24.88;15.23;;;;;;;;;;5116733;28;20020;-74
2022/12/06 14:14:18;;;;;;;28.98;15.35;;;;;;;;;;5116195;28;20042;-74
2022/12/06 14:17:14;;;;;;;23.80;14.52;;;;;;;;;;5116599;28;20042;-74
2022/12/06 14:20:00;;;;;;;28.00;14.77;;;;;;;;;;5116006;28;20024;-74
2022/12/06 14:22:47;;;;;;;27.13;15.75;;;;;;;;;;5101741;28;20045;-75
2022/12/06 14:25:32;;;;;;;27.75;15.65;;;;;;;;;;5115998;28;20015;-74
2022/12/06 14:28:18;;;;;;;30.17;16.33;;;;;;;;;;5115532;28;20023;-73
2022/12/06 14:31:04;;;;;;;31.70;17.35;;;;;;;;;;5116880;28;20033;-72
2022/12/06 14:33:51;;;;;;;29.17;16.10;;;;;;;;;;5116200;28;20462;-73
2022/12/06 14:36:39;;;;;;;28.20;15.82;;;;;;;;;;5117185;28;20056;-73
2022/12/06 14:39:27;;;;;;;26.05;14.73;;;;;;;;;;5116076;28;20038;-72
2022/12/06 14:45:21;;;;;;;31.50;16.63;;;;;;;;;;5115978;28;20322;-72
2022/12/06 14:48:09;;;;;;;28.85;16.67;;;;;;;;;;5115037;28;20034;-72
2022/12/06 14:50:57;;;;;;;31.88;15.50;;;;;;;;;;5115462;28;20485;-73
2022/12/06 14:53:43;;;;;;;27.90;16.27;;;;;;;;;;5115295;28;20035;-72
2022/12/06 14:56:33;;;;;;;31.33;16.60;;;;;;;;;;5115555;28;20019;-72
2022/12/06 14:59:20;;;;;;;32.47;15.77;;;;;;;;;;5115990;28;20070;-71
2022/12/06 15:02:19;;;;;;;28.67;16.38;;;;;;;;;;5115556;28;20024;-72
2022/12/06 15:05:24;;;;;;;28.08;15.90;;;;;;;;;;5115020;28;20478;-73
2022/12/06 15:08:30;;;;;;;29.30;16.23;;;;;;;;;;5115740;28;20519;-72
2022/12/06 15:12:54;;;;;;;27.30;15.88;;;;;;;;;;5115751;28;20024;-72
2022/12/06 15:14:22;;;;;;;29.30;16.80;;;;;;;;;;5114305;28;20023;-72
2022/12/06 15:17:08;;;;;;;29.13;17.73;;;;;;;;;;5114553;28;20023;-72
2022/12/06 15:19:53;;;;;;;32.63;17.45;;;;;;;;;;5114893;28;20039;-71
2022/12/06 15:22:45;;;;;;;29.42;17.33;;;;;;;;;;5114613;28;20008;-72
2022/12/06 15:25:30;;;;;;;34.03;18.38;;;;;;;;;;5114537;28;20106;-72
2022/12/06 15:28:16;;;;;;;29.83;17.10;;;;;;;;;;5114510;28;20348;-72
2022/12/06 15:31:03;;;;;;;30.73;17.83;;;;;;;;;;5114690;28;20527;-73
2022/12/06 15:33:48;;;;;;;32.33;17.88;;;;;;;;;;5114960;28;20497;-72
2022/12/06 15:36:35;;;;;;;38.35;21.92;;;;;;;;;;5113996;28;20123;-72
2022/12/06 15:39:21;;;;;;;39.22;21.15;;;;;;;;;;5100421;28;20028;-72
2022/12/06 15:42:18;;;;;;;36.65;20.13;;;;;;;;;;5114892;28;20106;-72
2022/12/06 15:45:04;;;;;;;34.45;19.02;;;;;;;;;;5114156;28;20077;-72
2022/12/06 15:47:51;;;;;;;33.85;19.02;;;;;;;;;;5113860;28;20030;-72
2022/12/06 15:50:37;;;;;;;32.97;18.10;;;;;;;;;;5114436;28;20118;-71
2022/12/06 15:53:23;;;;;;;35.55;19.60;;;;;;;;;;5114109;28;20364;-73
2022/12/06 15:56:13;;;;;;;34.05;17.58;;;;;;;;;;5114627;28;20030;-72
2022/12/06 15:58:59;;;;;;;37.90;19.65;;;;;;;;;;5114598;28;20030;-73
2022/12/06 16:01:46;;;;;;;36.33;19.67;;;;;;;;;;5113795;28;20034;-72
2022/12/06 16:04:33;;;;;;;33.22;18.50;;;;;;;;;;5113666;28;20047;-72
2022/12/06 16:07:19;;;;;;;32.40;18.90;;;;;;;;;;5113881;28;20039;-72
2022/12/06 16:10:05;;;;;;;32.60;18.98;;;;;;;;;;5114528;28;20023;-74
2022/12/06 16:15:55;;;;;;;34.50;21.10;;;;;;;;;;5114516;28;20024;-73
2022/12/06 16:18:41;;;;;;;36.80;20.40;;;;;;;;;;5114661;28;20028;-72
2022/12/06 16:21:28;;;;;;;35.30;18.95;;;;;;;;;;5099956;28;20106;-73
2022/12/06 16:24:13;;;;;;;31.25;17.92;;;;;;;;;;5114787;28;20069;-73
2022/12/06 16:26:59;;;;;;;33.75;18.08;;;;;;;;;;5113812;28;20034;-73
2022/12/06 16:29:44;;;;;;;31.55;17.55;;;;;;;;;;5118560;28;20030;-72
2022/12/06 16:32:30;;;;;;;32.40;18.13;;;;;;;;;;5118268;28;20031;-72
2022/12/06 16:35:16;;;;;;;30.92;17.90;;;;;;;;;;5117526;28;20016;-72
2022/12/06 16:38:01;;;;;;;32.85;17.50;;;;;;;;;;5117664;28;20124;-72
2022/12/06 16:40:47;;;;;;;31.98;17.42;;;;;;;;;;5103482;28;20401;-72
2022/12/06 16:43:32;;;;;;;33.28;18.35;;;;;;;;;;5118755;28;20024;-73
2022/12/06 16:46:29;;;;;;;30.13;17.08;;;;;;;;;;5103874;28;20102;-78
2022/12/06 16:49:19;;;;;;;37.22;19.75;;;;;;;;;;5119291;28;20114;-78
2022/12/06 16:52:05;;;;;;;32.60;18.13;;;;;;;;;;5105554;28;20051;-80
2022/12/06 16:54:51;;;;;;;32.15;18.48;;;;;;;;;;5117350;28;20023;-79
2022/12/06 16:57:37;;;;;;;34.20;18.00;;;;;;;;;;5135194;28;20016;-73